sensor_id;sensor_type;location;lat;lon;timestamp;pressure;altitude;pressure_sealevel;temperature;humidity
29163;BME280;20331;53.144;8.208;2024-02-21T00:02:09;101912.97;;;10.07;100.00
29163;BME280;20331;53.144;8.208;2024-02-21T00:07:31;101901.75;;;10.06;100.00
29163;BME280;20331;53.144;8.208;2024-02-21T00:12:52;101885.38;;;10.06;100.00
29163;BME280;20331;53.144;8.208;2024-02-21T00:18:14;101882.75;;;10.13;100.00
29163;BME280;20331;53.144;8.208;2024-02-21T00:23:36;101884.44;;;10.16;100.00
29163;BME280;20331;53.144;8.208;2024-02-21T00:28:58;101892.22;;;10.13;100.00
29163;BME280;20331;53.144;8.208;2024-02-21T00:34:20;101890.47;;;10.17;100.00
29163;BME280;20331;53.144;8.208;2024-02-21T00:39:41;101890.50;;;10.13;100.00
29163;BME280;20331;53.144;8.208;2024-02-21T00:45:04;101874.09;;;10.14;100.00
29163;BME280;20331;53.144;8.208;2024-02-21T00:50:26;101874.06;;;10.19;100.00
29163;BME280;20331;53.144;8.208;2024-02-21T00:55:48;101878.38;;;10.19;100.00
29163;BME280;20331;53.144;8.208;2024-02-21T01:01:10;101870.59;;;10.19;100.00
29163;BME280;20331;53.144;8.208;2024-02-21T01:06:32;101860.25;;;10.20;100.00
29163;BME280;20331;53.144;8.208;2024-02-21T01:11:53;101844.72;;;10.20;100.00
29163;BME280;20331;53.144;8.208;2024-02-21T01:17:15;101830.09;;;10.19;100.00
29163;BME280;20331;53.144;8.208;2024-02-21T01:22:37;101827.47;;;10.21;100.00
29163;BME280;20331;53.144;8.208;2024-02-21T01:27:58;101822.34;;;10.19;100.00
29163;BME280;20331;53.144;8.208;2024-02-21T01:33:20;101744.78;;;10.16;100.00
29163;BME280;20331;53.144;8.208;2024-02-21T01:38:42;101763.84;;;10.10;100.00
29163;BME280;20331;53.144;8.208;2024-02-21T01:44:04;101743.09;;;10.13;100.00
29163;BME280;20331;53.144;8.208;2024-02-21T01:49:26;101737.09;;;10.11;100.00
29163;BME280;20331;53.144;8.208;2024-02-21T01:54:48;101742.28;;;10.10;100.00
29163;BME280;20331;53.144;8.208;2024-02-21T02:00:13;101719.88;;;10.09;100.00
29163;BME280;20331;53.144;8.208;2024-02-21T02:05:35;101712.94;;;10.11;100.00
29163;BME280;20331;53.144;8.208;2024-02-21T02:10:57;101730.22;;;10.09;100.00
29163;BME280;20331;53.144;8.208;2024-02-21T02:16:19;101705.22;;;10.06;100.00
29163;BME280;20331;53.144;8.208;2024-02-21T02:21:46;101715.56;;;10.06;100.00
29163;BME280;20331;53.144;8.208;2024-02-21T02:27:15;101726.78;;;10.07;100.00
29163;BME280;20331;53.144;8.208;2024-02-21T02:32:36;101736.25;;;10.06;100.00
29163;BME280;20331;53.144;8.208;2024-02-21T02:37:58;101712.97;;;10.08;100.00
29163;BME280;20331;53.144;8.208;2024-02-21T02:43:20;101742.31;;;10.07;100.00
29163;BME280;20331;53.144;8.208;2024-02-21T02:48:42;101734.50;;;10.08;100.00
29163;BME280;20331;53.144;8.208;2024-02-21T02:54:04;101723.31;;;10.09;100.00
29163;BME280;20331;53.144;8.208;2024-02-21T02:59:25;101713.84;;;10.10;100.00
29163;BME280;20331;53.144;8.208;2024-02-21T03:04:47;101723.38;;;10.02;100.00
29163;BME280;20331;53.144;8.208;2024-02-21T03:10:10;101710.56;;;9.93;100.00
29163;BME280;20331;53.144;8.208;2024-02-21T03:15:32;101713.34;;;9.81;100.00
29163;BME280;20331;53.144;8.208;2024-02-21T03:20:53;101722.91;;;9.73;100.00
29163;BME280;20331;53.144;8.208;2024-02-21T03:26:15;101707.50;;;9.67;100.00
29163;BME280;20331;53.144;8.208;2024-02-21T03:31:38;101706.75;;;9.56;100.00
29163;BME280;20331;53.144;8.208;2024-02-21T03:37:01;101702.50;;;9.49;100.00
29163;BME280;20331;53.144;8.208;2024-02-21T03:42:23;101714.56;;;9.51;100.00
29163;BME280;20331;53.144;8.208;2024-02-21T03:47:44;101703.47;;;9.42;100.00
29163;BME280;20331;53.144;8.208;2024-02-21T03:53:06;101696.53;;;9.47;100.00
29163;BME280;20331;53.144;8.208;2024-02-21T03:58:28;101704.28;;;9.45;100.00
29163;BME280;20331;53.144;8.208;2024-02-21T04:03:50;101696.53;;;9.47;100.00
29163;BME280;20331;53.144;8.208;2024-02-21T04:09:12;101703.41;;;9.48;100.00
29163;BME280;20331;53.144;8.208;2024-02-21T04:14:34;101700.88;;;9.45;100.00
29163;BME280;20331;53.144;8.208;2024-02-21T04:20:04;101702.63;;;9.40;100.00
29163;BME280;20331;53.144;8.208;2024-02-21T04:25:30;101700.03;;;9.40;100.00
29163;BME280;20331;53.144;8.208;2024-02-21T04:30:52;101691.44;;;9.38;100.00
29163;BME280;20331;53.144;8.208;2024-02-21T04:36:14;101679.47;;;9.31;100.00
29163;BME280;20331;53.144;8.208;2024-02-21T04:41:36;101690.63;;;9.36;100.00
29163;BME280;20331;53.144;8.208;2024-02-21T04:46:58;101689.72;;;9.38;100.00
29163;BME280;20331;53.144;8.208;2024-02-21T04:52:19;101696.59;;;9.41;100.00
29163;BME280;20331;53.144;8.208;2024-02-21T04:57:41;101687.97;;;9.42;100.00
29163;BME280;20331;53.144;8.208;2024-02-21T05:03:03;101687.09;;;9.44;100.00
29163;BME280;20331;53.144;8.208;2024-02-21T05:08:25;101685.38;;;9.42;100.00
29163;BME280;20331;53.144;8.208;2024-02-21T05:13:47;101673.31;;;9.42;100.00
29163;BME280;20331;53.144;8.208;2024-02-21T05:19:08;101673.28;;;9.45;100.00
29163;BME280;20331;53.144;8.208;2024-02-21T05:24:30;101664.69;;;9.43;100.00
29163;BME280;20331;53.144;8.208;2024-02-21T05:29:53;101661.22;;;9.47;100.00
29163;BME280;20331;53.144;8.208;2024-02-21T05:35:15;101651.78;;;9.45;100.00
29163;BME280;20331;53.144;8.208;2024-02-21T05:40:37;101650.03;;;9.47;100.00
29163;BME280;20331;53.144;8.208;2024-02-21T05:45:59;101642.25;;;9.48;100.00
29163;BME280;20331;53.144;8.208;2024-02-21T05:51:20;101640.53;;;9.50;100.00
29163;BME280;20331;53.144;8.208;2024-02-21T05:56:46;101639.69;;;9.48;100.00
29163;BME280;20331;53.144;8.208;2024-02-21T06:02:08;101627.66;;;9.46;100.00
29163;BME280;20331;53.144;8.208;2024-02-21T06:07:30;101627.59;;;9.50;100.00
29163;BME280;20331;53.144;8.208;2024-02-21T06:12:52;101624.16;;;9.50;100.00
29163;BME280;20331;53.144;8.208;2024-02-21T06:18:14;101624.16;;;9.50;100.00
29163;BME280;20331;53.144;8.208;2024-02-21T06:23:36;101638.78;;;9.51;100.00
29163;BME280;20331;53.144;8.208;2024-02-21T06:28:58;101631.94;;;9.48;100.00
29163;BME280;20331;53.144;8.208;2024-02-21T06:34:24;101634.44;;;9.53;100.00
29163;BME280;20331;53.144;8.208;2024-02-21T06:39:46;101630.94;;;9.57;100.00
29163;BME280;20331;53.144;8.208;2024-02-21T06:45:08;101627.59;;;9.49;100.00
29163;BME280;20331;53.144;8.208;2024-02-21T06:50:30;101612.91;;;9.55;100.00
29163;BME280;20331;53.144;8.208;2024-02-21T06:55:51;101608.59;;;9.56;100.00
29163;BME280;20331;53.144;8.208;2024-02-21T07:01:13;101617.19;;;9.55;100.00
29163;BME280;20331;53.144;8.208;2024-02-21T07:06:35;101625.00;;;9.52;100.00
29163;BME280;20331;53.144;8.208;2024-02-21T07:12:00;101628.41;;;9.52;100.00
29163;BME280;20331;53.144;8.208;2024-02-21T07:17:22;101626.66;;;9.54;100.00
29163;BME280;20331;53.144;8.208;2024-02-21T07:22:44;101624.19;;;9.48;100.00
29163;BME280;20331;53.144;8.208;2024-02-21T07:28:06;101634.50;;;9.50;100.00
29163;BME280;20331;53.144;8.208;2024-02-21T07:33:28;101639.66;;;9.50;100.00
29163;BME280;20331;53.144;8.208;2024-02-21T07:38:50;101630.19;;;9.49;100.00
29163;BME280;20331;53.144;8.208;2024-02-21T07:44:12;101632.78;;;9.47;100.00
29163;BME280;20331;53.144;8.208;2024-02-21T07:49:40;101624.13;;;9.51;100.00
29163;BME280;20331;53.144;8.208;2024-02-21T07:55:03;101624.13;;;9.51;100.00
29163;BME280;20331;53.144;8.208;2024-02-21T08:00:24;101614.66;;;9.52;100.00
29163;BME280;20331;53.144;8.208;2024-02-21T08:05:45;101614.56;;;9.59;100.00
29163;BME280;20331;53.144;8.208;2024-02-21T08:11:32;101600.66;;;9.68;100.00
29163;BME280;20331;53.144;8.208;2024-02-21T08:16:54;101594.59;;;9.69;100.00
29163;BME280;20331;53.144;8.208;2024-02-21T08:22:17;101594.56;;;9.72;100.00
29163;BME280;20331;53.144;8.208;2024-02-21T08:27:39;101597.16;;;9.72;100.00
29163;BME280;20331;53.144;8.208;2024-02-21T08:33:02;101592.00;;;9.72;100.00
29163;BME280;20331;53.144;8.208;2024-02-21T08:38:25;101582.47;;;9.75;100.00
29163;BME280;20331;53.144;8.208;2024-02-21T08:43:47;101566.09;;;9.75;100.00
29163;BME280;20331;53.144;8.208;2024-02-21T08:49:10;101565.22;;;9.76;100.00
29163;BME280;20331;53.144;8.208;2024-02-21T08:54:32;101563.50;;;9.75;100.00
29163;BME280;20331;53.144;8.208;2024-02-21T08:59:57;101577.28;;;9.75;100.00
29163;BME280;20331;53.144;8.208;2024-02-21T09:05:18;101558.34;;;9.75;100.00
29163;BME280;20331;53.144;8.208;2024-02-21T09:10:41;101558.41;;;9.72;100.00
29163;BME280;20331;53.144;8.208;2024-02-21T09:16:03;101553.16;;;9.75;100.00
29163;BME280;20331;53.144;8.208;2024-02-21T09:21:25;101555.81;;;9.72;100.00
29163;BME280;20331;53.144;8.208;2024-02-21T09:26:47;101550.63;;;9.72;100.00
29163;BME280;20331;53.144;8.208;2024-02-21T09:32:12;101554.91;;;9.76;100.00
29163;BME280;20331;53.144;8.208;2024-02-21T09:37:34;101544.59;;;9.73;100.00
29163;BME280;20331;53.144;8.208;2024-02-21T09:43:05;101541.97;;;9.74;100.00
29163;BME280;20331;53.144;8.208;2024-02-21T09:54:18;101511.88;;;9.72;100.00
29163;BME280;20331;53.144;8.208;2024-02-21T09:59:40;101509.25;;;9.73;100.00
29163;BME280;20331;53.144;8.208;2024-02-21T10:05:05;101514.44;;;9.73;100.00
29163;BME280;20331;53.144;8.208;2024-02-21T10:10:39;101504.97;;;9.74;100.00
29163;BME280;20331;53.144;8.208;2024-02-21T10:16:03;101488.56;;;9.75;100.00
29163;BME280;20331;53.144;8.208;2024-02-21T10:21:25;101472.28;;;9.70;100.00
29163;BME280;20331;53.144;8.208;2024-02-21T10:26:46;101479.94;;;9.76;100.00
29163;BME280;20331;53.144;8.208;2024-02-21T10:32:13;101473.72;;;9.86;100.00
29163;BME280;20331;53.144;8.208;2024-02-21T10:37:35;101467.78;;;9.81;100.00
29163;BME280;20331;53.144;8.208;2024-02-21T10:43:00;101465.22;;;9.81;100.00
29163;BME280;20331;53.144;8.208;2024-02-21T10:48:29;101454.63;;;9.96;100.00
29163;BME280;20331;53.144;8.208;2024-02-21T10:54:24;101443.31;;;10.00;100.00
29163;BME280;20331;53.144;8.208;2024-02-21T10:59:51;101447.50;;;10.10;100.00
29163;BME280;20331;53.144;8.208;2024-02-21T11:05:13;101430.88;;;10.23;100.00
29163;BME280;20331;53.144;8.208;2024-02-21T11:10:36;101410.69;;;10.40;100.00
29163;BME280;20331;53.144;8.208;2024-02-21T11:16:08;101403.56;;;10.51;100.00
29163;BME280;20331;53.144;8.208;2024-02-21T11:21:35;101384.38;;;10.61;100.00
29163;BME280;20331;53.144;8.208;2024-02-21T11:32:35;101355.59;;;10.76;100.00
29163;BME280;20331;53.144;8.208;2024-02-21T11:38:07;101358.22;;;10.73;100.00
29163;BME280;20331;53.144;8.208;2024-02-21T11:43:31;101352.91;;;10.79;100.00
29163;BME280;20331;53.144;8.208;2024-02-21T11:48:52;101341.78;;;10.76;100.00
29163;BME280;20331;53.144;8.208;2024-02-21T11:54:14;101321.09;;;10.76;100.00
29163;BME280;20331;53.144;8.208;2024-02-21T11:59:39;101312.16;;;10.89;100.00
29163;BME280;20331;53.144;8.208;2024-02-21T12:05:01;101324.16;;;10.91;99.66
29163;BME280;20331;53.144;8.208;2024-02-21T12:10:26;101305.19;;;10.91;99.80
29163;BME280;20331;53.144;8.208;2024-02-21T12:15:48;101294.75;;;10.94;98.83
29163;BME280;20331;53.144;8.208;2024-02-21T12:21:10;101281.72;;;10.97;99.68
29163;BME280;20331;53.144;8.208;2024-02-21T12:26:32;101270.53;;;10.96;98.40
29163;BME280;20331;53.144;8.208;2024-02-21T12:31:54;101257.66;;;10.93;98.47
29163;BME280;20331;53.144;8.208;2024-02-21T12:37:16;101251.56;;;10.96;97.01
29163;BME280;20331;53.144;8.208;2024-02-21T12:42:38;101225.56;;;10.99;97.39
29163;BME280;20331;53.144;8.208;2024-02-21T12:48:00;101218.81;;;10.95;95.03
29163;BME280;20331;53.144;8.208;2024-02-21T12:53:22;101208.41;;;10.96;96.31
29163;BME280;20331;53.144;8.208;2024-02-21T12:58:53;101190.19;;;10.99;96.20
29163;BME280;20331;53.144;8.208;2024-02-21T13:04:15;101177.28;;;10.98;95.36
29163;BME280;20331;53.144;8.208;2024-02-21T13:09:37;101159.19;;;10.96;95.10
29163;BME280;20331;53.144;8.208;2024-02-21T13:14:59;101140.03;;;11.03;96.26
29163;BME280;20331;53.144;8.208;2024-02-21T13:20:20;101129.56;;;11.06;96.51
29163;BME280;20331;53.144;8.208;2024-02-21T13:25:43;101095.22;;;11.00;94.09
29163;BME280;20331;53.144;8.208;2024-02-21T13:31:07;101077.88;;;11.03;95.00
29163;BME280;20331;53.144;8.208;2024-02-21T13:36:29;101083.16;;;11.00;94.11
29163;BME280;20331;53.144;8.208;2024-02-21T13:41:51;101061.47;;;11.03;95.25
29163;BME280;20331;53.144;8.208;2024-02-21T13:47:14;101065.78;;;11.02;94.08
29163;BME280;20331;53.144;8.208;2024-02-21T13:52:37;101046.91;;;10.99;92.56
29163;BME280;20331;53.144;8.208;2024-02-21T13:57:59;101007.03;;;11.06;94.62
29163;BME280;20331;53.144;8.208;2024-02-21T14:03:21;101010.44;;;11.06;94.11
29163;BME280;20331;53.144;8.208;2024-02-21T14:08:43;101053.59;;;11.07;94.85
29163;BME280;20331;53.144;8.208;2024-02-21T14:14:04;100990.69;;;11.04;94.94
29163;BME280;20331;53.144;8.208;2024-02-21T14:19:27;100979.38;;;11.06;94.63
29163;BME280;20331;53.144;8.208;2024-02-21T14:24:48;100975.91;;;11.07;94.45
29163;BME280;20331;53.144;8.208;2024-02-21T14:30:10;100956.97;;;11.05;93.92
29163;BME280;20331;53.144;8.208;2024-02-21T14:35:32;100949.56;;;10.93;93.59
29163;BME280;20331;53.144;8.208;2024-02-21T14:40:55;100945.44;;;10.86;93.00
29163;BME280;20331;53.144;8.208;2024-02-21T14:46:17;100927.25;;;10.89;93.66
29163;BME280;20331;53.144;8.208;2024-02-21T14:51:39;100905.75;;;10.87;94.61
29163;BME280;20331;53.144;8.208;2024-02-21T14:57:01;100892.06;;;10.82;92.97
29163;BME280;20331;53.144;8.208;2024-02-21T15:02:24;100883.56;;;10.79;94.02
29163;BME280;20331;53.144;8.208;2024-02-21T15:07:46;100857.72;;;10.77;95.16
29163;BME280;20331;53.144;8.208;2024-02-21T15:13:08;100844.06;;;10.72;93.64
29163;BME280;20331;53.144;8.208;2024-02-21T15:18:29;100832.00;;;10.71;94.06
29163;BME280;20331;53.144;8.208;2024-02-21T15:23:54;100794.22;;;10.67;93.98
29163;BME280;20331;53.144;8.208;2024-02-21T15:29:16;100806.34;;;10.65;94.15
29163;BME280;20331;53.144;8.208;2024-02-21T15:34:38;100800.38;;;10.63;93.46
29163;BME280;20331;53.144;8.208;2024-02-21T15:40:00;100808.31;;;10.57;92.71
29163;BME280;20331;53.144;8.208;2024-02-21T15:45:26;100792.78;;;10.57;92.91
29163;BME280;20331;53.144;8.208;2024-02-21T15:50:48;100794.38;;;10.61;93.77
29163;BME280;20331;53.144;8.208;2024-02-21T15:56:10;100789.31;;;10.58;93.33
29163;BME280;20331;53.144;8.208;2024-02-21T16:01:34;100779.03;;;10.55;93.51
29163;BME280;20331;53.144;8.208;2024-02-21T16:07:00;100767.00;;;10.54;95.52
29163;BME280;20331;53.144;8.208;2024-02-21T16:12:23;100767.91;;;10.53;93.81
29163;BME280;20331;53.144;8.208;2024-02-21T16:22:12;100760.34;;;10.47;93.78
29163;BME280;20331;53.144;8.208;2024-02-21T16:27:35;100759.59;;;10.44;94.94
29163;BME280;20331;53.144;8.208;2024-02-21T16:33:00;100733.00;;;10.39;93.83
29163;BME280;20331;53.144;8.208;2024-02-21T16:38:22;100731.25;;;10.39;94.34
29163;BME280;20331;53.144;8.208;2024-02-21T16:43:43;100724.59;;;10.32;93.53
29163;BME280;20331;53.144;8.208;2024-02-21T16:49:06;100704.09;;;10.26;93.18
29163;BME280;20331;53.144;8.208;2024-02-21T16:54:28;100685.75;;;10.34;93.85
29163;BME280;20331;53.144;8.208;2024-02-21T16:59:50;100684.91;;;10.33;93.82
29163;BME280;20331;53.144;8.208;2024-02-21T17:05:12;100666.91;;;10.30;93.82
29163;BME280;20331;53.144;8.208;2024-02-21T17:10:34;100656.44;;;10.33;93.61
29163;BME280;20331;53.144;8.208;2024-02-21T17:15:56;100643.63;;;10.30;92.82
29163;BME280;20331;53.144;8.208;2024-02-21T17:21:18;100631.59;;;10.29;92.96
29163;BME280;20331;53.144;8.208;2024-02-21T17:26:40;100634.97;;;10.31;93.37
29163;BME280;20331;53.144;8.208;2024-02-21T17:32:02;100606.69;;;10.27;93.54
29163;BME280;20331;53.144;8.208;2024-02-21T17:37:23;100583.59;;;10.21;95.05
29163;BME280;20331;53.144;8.208;2024-02-21T17:42:45;100575.28;;;10.11;95.46
29163;BME280;20331;53.144;8.208;2024-02-21T17:48:07;100562.47;;;10.06;96.70
29163;BME280;20331;53.144;8.208;2024-02-21T17:53:30;100547.91;;;10.04;97.25
29163;BME280;20331;53.144;8.208;2024-02-21T17:58:52;100523.28;;;9.94;97.79
29163;BME280;20331;53.144;8.208;2024-02-21T18:04:14;100507.81;;;9.92;97.78
29163;BME280;20331;53.144;8.208;2024-02-21T18:09:37;100494.09;;;9.90;98.15
29163;BME280;20331;53.144;8.208;2024-02-21T18:15:16;100482.16;;;9.86;97.35
29163;BME280;20331;53.144;8.208;2024-02-21T18:20:38;100468.44;;;9.84;99.31
29163;BME280;20331;53.144;8.208;2024-02-21T18:26:00;100454.78;;;9.81;99.34
29163;BME280;20331;53.144;8.208;2024-02-21T18:31:22;100459.91;;;9.82;99.57
29163;BME280;20331;53.144;8.208;2024-02-21T18:36:44;100448.94;;;9.76;100.00
29163;BME280;20331;53.144;8.208;2024-02-21T18:42:07;100439.59;;;9.72;100.00
29163;BME280;20331;53.144;8.208;2024-02-21T18:47:29;100419.91;;;9.68;100.00
29163;BME280;20331;53.144;8.208;2024-02-21T18:52:51;100412.94;;;9.70;100.00
29163;BME280;20331;53.144;8.208;2024-02-21T18:58:14;100389.69;;;9.70;100.00
29163;BME280;20331;53.144;8.208;2024-02-21T19:03:36;100382.06;;;9.67;100.00
29163;BME280;20331;53.144;8.208;2024-02-21T19:08:58;100369.34;;;9.61;100.00
29163;BME280;20331;53.144;8.208;2024-02-21T19:14:20;100357.44;;;9.57;100.00
29163;BME280;20331;53.144;8.208;2024-02-21T19:19:42;100347.03;;;9.58;100.00
29163;BME280;20331;53.144;8.208;2024-02-21T19:25:07;100337.69;;;9.56;100.00
29163;BME280;20331;53.144;8.208;2024-02-21T19:30:34;100331.53;;;9.58;100.00
29163;BME280;20331;53.144;8.208;2024-02-21T19:35:56;100317.41;;;9.44;100.00
29163;BME280;20331;53.144;8.208;2024-02-21T19:41:18;100323.56;;;9.40;100.00
29163;BME280;20331;53.144;8.208;2024-02-21T19:46:39;100305.41;;;9.43;100.00
29163;BME280;20331;53.144;8.208;2024-02-21T19:52:02;100284.88;;;9.38;100.00
29163;BME280;20331;53.144;8.208;2024-02-21T19:57:24;100277.25;;;9.35;100.00
29163;BME280;20331;53.144;8.208;2024-02-21T20:02:45;100261.13;;;9.29;100.00
29163;BME280;20331;53.144;8.208;2024-02-21T20:08:08;100247.41;;;9.27;100.00
29163;BME280;20331;53.144;8.208;2024-02-21T20:13:31;100251.97;;;9.20;100.00
29163;BME280;20331;53.144;8.208;2024-02-21T20:18:52;100248.47;;;9.21;100.00
29163;BME280;20331;53.144;8.208;2024-02-21T20:24:14;100242.44;;;9.22;100.00
29163;BME280;20331;53.144;8.208;2024-02-21T20:29:56;100228.66;;;9.22;100.00
29163;BME280;20331;53.144;8.208;2024-02-21T20:35:18;100221.25;;;9.12;100.00
29163;BME280;20331;53.144;8.208;2024-02-21T20:40:40;100207.34;;;9.17;100.00
29163;BME280;20331;53.144;8.208;2024-02-21T20:46:02;100193.59;;;9.16;100.00
29163;BME280;20331;53.144;8.208;2024-02-21T20:51:24;100180.75;;;9.14;100.00
29163;BME280;20331;53.144;8.208;2024-02-21T20:56:46;100169.09;;;9.03;100.00
29163;BME280;20331;53.144;8.208;2024-02-21T21:02:07;100157.16;;;9.00;100.00
29163;BME280;20331;53.144;8.208;2024-02-21T21:07:29;100145.13;;;8.99;100.00
29163;BME280;20331;53.144;8.208;2024-02-21T21:12:52;100138.69;;;8.88;100.00
29163;BME280;20331;53.144;8.208;2024-02-21T21:18:14;100129.03;;;8.93;100.00
29163;BME280;20331;53.144;8.208;2024-02-21T21:23:36;100115.47;;;8.88;100.00
29163;BME280;20331;53.144;8.208;2024-02-21T21:28:57;100107.75;;;8.86;100.00
29163;BME280;20331;53.144;8.208;2024-02-21T21:34:19;100096.69;;;8.83;100.00
29163;BME280;20331;53.144;8.208;2024-02-21T21:39:41;100083.84;;;8.81;100.00
29163;BME280;20331;53.144;8.208;2024-02-21T21:45:09;100087.09;;;8.86;100.00
29163;BME280;20331;53.144;8.208;2024-02-21T21:50:31;100070.16;;;8.79;100.00
29163;BME280;20331;53.144;8.208;2024-02-21T21:55:53;100060.69;;;8.80;100.00
29163;BME280;20331;53.144;8.208;2024-02-21T22:01:14;100058.38;;;8.72;100.00
29163;BME280;20331;53.144;8.208;2024-02-21T22:06:36;100042.03;;;8.73;100.00
29163;BME280;20331;53.144;8.208;2024-02-21T22:11:58;100034.25;;;8.75;100.00
29163;BME280;20331;53.144;8.208;2024-02-21T22:17:20;100022.16;;;8.75;100.00
29163;BME280;20331;53.144;8.208;2024-02-21T22:22:41;100003.34;;;8.73;100.00
29163;BME280;20331;53.144;8.208;2024-02-21T22:28:03;99979.56;;;8.65;100.00
29163;BME280;20331;53.144;8.208;2024-02-21T22:33:25;99976.97;;;8.65;100.00
29163;BME280;20331;53.144;8.208;2024-02-21T22:38:47;99963.97;;;8.68;100.00
29163;BME280;20331;53.144;8.208;2024-02-21T22:44:09;99958.34;;;8.57;100.00
29163;BME280;20331;53.144;8.208;2024-02-21T22:49:30;99940.56;;;8.50;100.00
29163;BME280;20331;53.144;8.208;2024-02-21T22:54:52;99937.50;;;8.63;100.00
29163;BME280;20331;53.144;8.208;2024-02-21T23:00:14;99921.97;;;8.65;100.00
29163;BME280;20331;53.144;8.208;2024-02-21T23:05:37;99928.13;;;8.62;100.00
29163;BME280;20331;53.144;8.208;2024-02-21T23:10:59;99891.03;;;8.65;100.00
29163;BME280;20331;53.144;8.208;2024-02-21T23:16:22;99877.19;;;8.67;100.00
29163;BME280;20331;53.144;8.208;2024-02-21T23:21:44;99874.63;;;8.67;100.00
29163;BME280;20331;53.144;8.208;2024-02-21T23:27:06;99866.03;;;8.67;100.00
29163;BME280;20331;53.144;8.208;2024-02-21T23:32:28;99862.59;;;8.66;100.00
29163;BME280;20331;53.144;8.208;2024-02-21T23:37:49;99854.72;;;8.71;100.00
29163;BME280;20331;53.144;8.208;2024-02-21T23:43:11;99833.13;;;8.73;100.00
29163;BME280;20331;53.144;8.208;2024-02-21T23:48:33;99833.06;;;8.75;100.00
29163;BME280;20331;53.144;8.208;2024-02-21T23:53:55;99808.06;;;8.77;100.00
29163;BME280;20331;53.144;8.208;2024-02-21T23:59:16;99819.19;;;8.77;100.00
